PWSweather.com
Personal Weather Stations
Station Observations
SANDHURSTWX
SandhurstGB

SandhurstGB

Lat: 51.3522, Lon: -0.7739

Elevation: 272.3

Station Type: Davis VP2

www.sandhurstweather.org.uk

High Low Average
Temperature 73.4°F23.0°C 44.7°F7.1°C 58.9°F14.9°C
Dew Point 53.5°F11.9°C 42.8°F6.0°C 47.7°F8.7°C
Winds 2.3 mph 3.7 kmh Calm Calm 1.0 mph SE1.6 kmh SE
Wind Gusts 5.8 mph9.3 kmh -- 2.0 mph3.2 kmh
Humidity 95% 39% 70%
Pressure 30.58 in1035.6 mb 30.33 in1027.1 mb -
Precipitation 0.00 in0.0 mm - -
Hour Temp Dew Point Humidity Winds Wind Gusts Pressure Precip Precip Rate Daily Precip Total
12:00 AM 53.9°F12.2°C 50.5°F10.3°C 88% 1.2 mph E1.9 kmh E 3.5 mph5.6 kmh 30.58 in1035.6 mb - 0.00 in0.0 mm 0.00 in0.0 mm
01:00 AM 51.8°F11.0°C 48.7°F9.3°C 89% Calm Calm -- 30.57 in1035.2 mb - 0.00 in0.0 mm 0.00 in0.0 mm
02:00 AM 49.7°F9.8°C 46.9°F8.3°C 90% Calm Calm -- 30.57 in1035.2 mb - 0.00 in0.0 mm 0.00 in0.0 mm
03:00 AM 47.9°F8.8°C 45.4°F7.4°C 91% Calm Calm -- 30.56 in1034.9 mb - 0.00 in0.0 mm 0.00 in0.0 mm
04:00 AM 46.7°F8.2°C 44.5°F6.9°C 92% Calm Calm -- 30.55 in1034.5 mb - 0.00 in0.0 mm 0.00 in0.0 mm
05:00 AM 45.1°F7.3°C 42.9°F6.1°C 92% 1.2 mph NE1.9 kmh NE 1.2 mph1.9 kmh 30.55 in1034.5 mb - 0.00 in0.0 mm 0.00 in0.0 mm
06:00 AM 44.7°F7.1°C 42.8°F6.0°C 93% Calm Calm -- 30.54 in1034.2 mb - 0.00 in0.0 mm 0.00 in0.0 mm
07:00 AM 45.8°F7.7°C 44.5°F6.9°C 95% Calm Calm -- 30.53 in1033.9 mb - 0.00 in0.0 mm 0.00 in0.0 mm
08:00 AM 50.4°F10.2°C 48.7°F9.3°C 94% Calm Calm -- 30.54 in1034.2 mb - 0.00 in0.0 mm 0.00 in0.0 mm
09:00 AM 60.4°F15.8°C 53.5°F11.9°C 78% 2.3 mph SSE3.7 kmh SSE 5.8 mph9.3 kmh 30.52 in1033.5 mb - 0.00 in0.0 mm 0.00 in0.0 mm
10:00 AM 64.7°F18.2°C 50.9°F10.5°C 61% 1.2 mph SSE1.9 kmh SSE 4.6 mph7.4 kmh 30.51 in1033.2 mb - 0.00 in0.0 mm 0.00 in0.0 mm
11:00 AM 67.6°F19.8°C 50.4°F10.2°C 54% Calm Calm 2.3 mph3.7 kmh 30.50 in1032.8 mb - 0.00 in0.0 mm 0.00 in0.0 mm
12:00 PM 69.7°F20.9°C 48.0°F8.9°C 46% 2.3 mph SSE3.7 kmh SSE 4.6 mph7.4 kmh 30.48 in1032.2 mb - 0.00 in0.0 mm 0.00 in0.0 mm
01:00 PM 71.7°F22.1°C 48.6°F9.2°C 44% 1.2 mph SSE1.9 kmh SSE 2.3 mph3.7 kmh 30.46 in1031.5 mb - 0.00 in0.0 mm 0.00 in0.0 mm
02:00 PM 73.4°F23.0°C 47.6°F8.7°C 40% 1.2 mph SSW1.9 kmh SSW 4.6 mph7.4 kmh 30.43 in1030.5 mb - 0.00 in0.0 mm 0.00 in0.0 mm
03:00 PM 72.8°F22.7°C 47.0°F8.3°C 40% 1.2 mph S1.9 kmh S 3.5 mph5.6 kmh 30.40 in1029.5 mb - 0.00 in0.0 mm 0.00 in0.0 mm
04:00 PM 73.4°F23.0°C 47.0°F8.3°C 39% 1.2 mph WSW1.9 kmh WSW 3.5 mph5.6 kmh 30.38 in1028.8 mb - 0.00 in0.0 mm 0.00 in0.0 mm
05:00 PM 71.1°F21.7°C 45.5°F7.5°C 40% Calm Calm 1.2 mph1.9 kmh 30.37 in1028.4 mb - 0.00 in0.0 mm 0.00 in0.0 mm
06:00 PM 68.4°F20.2°C 49.0°F9.4°C 50% Calm Calm -- 30.36 in1028.1 mb - 0.00 in0.0 mm 0.00 in0.0 mm
07:00 PM 62.3°F16.8°C 47.8°F8.8°C 59% Calm Calm -- 30.37 in1028.4 mb - 0.00 in0.0 mm 0.00 in0.0 mm
08:00 PM 58.3°F14.6°C 48.6°F9.2°C 70% Calm Calm -- 30.36 in1028.1 mb - 0.00 in0.0 mm 0.00 in0.0 mm
09:00 PM 55.8°F13.2°C 47.7°F8.7°C 74% Calm Calm -- 30.36 in1028.1 mb - 0.00 in0.0 mm 0.00 in0.0 mm
10:00 PM 54.5°F12.5°C 48.8°F9.3°C 81% Calm Calm -- 30.35 in1027.8 mb - 0.00 in0.0 mm 0.00 in0.0 mm
11:00 PM 53.2°F11.8°C 48.5°F9.2°C 84% Calm Calm -- 30.33 in1027.1 mb - 0.00 in0.0 mm 0.00 in0.0 mm